createdAt,value
2019-03-19T00:01:47.814Z,0.50
2019-03-19T00:04:17.078Z,0.23
2019-03-19T00:06:46.376Z,0.20
2019-03-19T00:09:15.632Z,0.33
2019-03-19T00:11:44.909Z,0.37
2019-03-19T00:14:14.184Z,0.33
2019-03-19T00:16:43.455Z,0.27
2019-03-19T00:19:12.746Z,0.43
2019-03-19T00:21:42.015Z,0.30
2019-03-19T00:24:11.277Z,0.60
2019-03-19T00:26:40.563Z,0.53
2019-03-19T00:29:09.845Z,0.30
2019-03-19T00:31:39.124Z,0.30
2019-03-19T00:34:08.409Z,0.30
2019-03-19T00:36:37.705Z,0.27
2019-03-19T00:39:07.796Z,0.30
2019-03-19T00:41:37.057Z,0.30
2019-03-19T00:44:06.342Z,0.50
2019-03-19T00:46:35.603Z,0.30
2019-03-19T00:49:06.710Z,0.20
2019-03-19T00:51:35.860Z,0.33
2019-03-19T00:56:40.351Z,0.37
2019-03-19T00:59:09.629Z,0.37
2019-03-19T01:01:39.005Z,0.37
2019-03-19T01:04:08.239Z,0.33
2019-03-19T01:06:37.509Z,0.40
2019-03-19T01:09:07.796Z,0.30
2019-03-19T01:11:37.076Z,0.30
2019-03-19T01:14:06.340Z,0.17
2019-03-19T01:16:35.613Z,0.57
2019-03-19T01:19:04.874Z,0.20
2019-03-19T01:21:34.155Z,0.30
2019-03-19T01:24:03.492Z,0.40
2019-03-19T01:26:32.758Z,0.30
2019-03-19T01:29:02.035Z,0.30
2019-03-19T01:31:31.298Z,0.40
2019-03-19T01:34:00.558Z,0.10
2019-03-19T01:36:29.835Z,0.30
2019-03-19T01:38:59.092Z,0.40
2019-03-19T01:41:28.404Z,0.10
2019-03-19T01:43:57.676Z,0.30
2019-03-19T01:46:26.940Z,0.27
2019-03-19T01:48:56.250Z,0.10
2019-03-19T01:51:25.510Z,0.50
2019-03-19T01:53:54.776Z,0.20
2019-03-19T01:56:24.059Z,0.20
2019-03-19T01:58:53.326Z,0.30
2019-03-19T02:01:22.613Z,0.40
2019-03-19T02:03:51.880Z,0.13
2019-03-19T02:06:21.150Z,0.30
2019-03-19T02:08:50.433Z,0.37
2019-03-19T02:11:19.721Z,0.37
2019-03-19T02:13:48.993Z,0.40
2019-03-19T02:16:18.257Z,0.57
2019-03-19T02:18:47.557Z,0.40
2019-03-19T02:21:16.810Z,0.30
2019-03-19T02:23:46.100Z,0.20
2019-03-19T02:26:16.774Z,0.50
2019-03-19T02:28:46.552Z,0.27
2019-03-19T02:31:15.835Z,0.27
2019-03-19T02:33:45.095Z,0.17
2019-03-19T02:36:14.394Z,0.27
2019-03-19T02:38:43.683Z,0.40
2019-03-19T02:41:12.971Z,0.50
2019-03-19T02:43:42.332Z,0.47
2019-03-19T02:46:11.614Z,0.23
2019-03-19T02:48:40.906Z,0.30
2019-03-19T02:51:10.189Z,0.50
2019-03-19T02:53:39.478Z,0.20
2019-03-19T02:56:08.735Z,0.30
2019-03-19T02:58:38.029Z,0.33
2019-03-19T03:01:07.314Z,0.40
2019-03-19T03:03:36.584Z,0.30
2019-03-19T03:06:05.964Z,0.30
2019-03-19T03:08:35.223Z,0.57
2019-03-19T03:11:04.501Z,0.20
2019-03-19T03:13:33.788Z,0.47
2019-03-19T03:16:03.033Z,0.40
2019-03-19T03:18:32.309Z,0.37
2019-03-19T03:21:01.578Z,0.23
2019-03-19T03:23:30.844Z,0.20
2019-03-19T03:26:00.144Z,0.37
2019-03-19T03:28:29.415Z,0.10
2019-03-19T03:30:58.689Z,0.50
2019-03-19T03:33:27.952Z,0.10
2019-03-19T03:35:57.240Z,0.50
2019-03-19T03:38:26.545Z,0.20
2019-03-19T03:40:55.823Z,0.30
2019-03-19T03:43:44.162Z,0.23
2019-03-19T03:49:01.847Z,0.30
2019-03-19T03:51:31.145Z,0.20
2019-03-19T03:54:00.421Z,0.20
2019-03-19T03:56:29.708Z,0.40
2019-03-19T03:59:00.802Z,0.30
2019-03-19T04:01:29.981Z,0.20
2019-03-19T04:03:59.269Z,0.20
2019-03-19T04:06:28.708Z,0.20
2019-03-19T04:08:57.990Z,0.20
2019-03-19T04:11:27.263Z,0.37
2019-03-19T04:13:56.544Z,0.40
2019-03-19T04:16:25.809Z,0.40
2019-03-19T04:18:55.087Z,0.57
2019-03-19T04:21:24.360Z,0.57
2019-03-19T04:23:53.646Z,0.50
2019-03-19T04:26:22.921Z,0.40
2019-03-19T04:28:53.181Z,0.50
2019-03-19T04:31:22.462Z,0.40
2019-03-19T04:33:51.736Z,0.30
2019-03-19T04:36:21.022Z,0.30
2019-03-19T04:38:50.302Z,0.30
2019-03-19T04:41:19.576Z,0.53
2019-03-19T04:43:48.863Z,0.50
2019-03-19T04:46:18.204Z,0.30
2019-03-19T04:48:47.480Z,0.30
2019-03-19T04:51:16.789Z,0.30
2019-03-19T04:53:46.074Z,0.40
2019-03-19T04:56:34.258Z,0.20
2019-03-19T04:59:03.551Z,0.40
2019-03-19T05:01:32.833Z,0.20
2019-03-19T05:04:02.175Z,0.30
2019-03-19T05:06:31.460Z,0.40
2019-03-19T05:09:00.783Z,0.40
2019-03-19T05:11:30.069Z,0.50
2019-03-19T05:13:59.359Z,0.40
2019-03-19T05:16:28.653Z,0.30
2019-03-19T05:18:57.928Z,0.30
2019-03-19T05:21:27.203Z,0.15
2019-03-19T05:23:56.501Z,0.30
2019-03-19T05:26:25.789Z,0.30
2019-03-19T05:28:55.065Z,0.20
2019-03-19T05:31:24.364Z,0.40
2019-03-19T05:33:53.630Z,0.30
2019-03-19T05:36:22.895Z,0.23
2019-03-19T05:38:52.168Z,0.30
2019-03-19T05:41:21.432Z,0.60
2019-03-19T05:43:50.705Z,0.13
2019-03-19T05:46:20.010Z,0.40
2019-03-19T05:48:49.300Z,0.30
2019-03-19T05:51:18.577Z,0.40
2019-03-19T05:53:47.860Z,0.43
2019-03-19T05:56:17.513Z,0.43
2019-03-19T05:58:46.794Z,0.70
2019-03-19T06:01:16.097Z,0.67
2019-03-19T06:03:45.363Z,0.33
2019-03-19T06:06:14.643Z,0.40
2019-03-19T06:08:43.926Z,0.40
2019-03-19T06:11:13.200Z,0.20
2019-03-19T06:13:42.793Z,0.40
2019-03-19T06:16:12.066Z,0.40
2019-03-19T06:18:41.379Z,0.33
2019-03-19T06:21:10.706Z,0.47
2019-03-19T06:24:19.392Z,0.50
2019-03-19T06:27:08.644Z,0.20
2019-03-19T06:29:58.522Z,0.20
2019-03-19T06:32:31.488Z,0.90
2019-03-19T06:35:01.717Z,0.30
2019-03-19T06:37:31.124Z,0.20
2019-03-19T06:40:00.475Z,0.20
2019-03-19T06:42:31.888Z,0.40
2019-03-19T06:45:01.262Z,0.40
2019-03-19T06:47:49.612Z,0.43
2019-03-19T06:50:19.428Z,0.37
2019-03-19T06:52:49.020Z,0.30
2019-03-19T06:55:19.336Z,0.37
2019-03-19T06:57:48.982Z,0.47
2019-03-19T07:00:38.124Z,0.27
2019-03-19T07:03:27.812Z,0.70
2019-03-19T07:06:17.217Z,0.47
2019-03-19T07:11:34.918Z,0.40
2019-03-19T07:14:04.303Z,0.20
2019-03-19T07:16:33.611Z,0.63
2019-03-19T07:19:02.897Z,0.33
2019-03-19T07:21:32.179Z,0.33
2019-03-19T07:24:01.444Z,0.60
2019-03-19T07:26:30.709Z,0.53
2019-03-19T07:29:00.022Z,0.30
2019-03-19T07:31:31.237Z,0.50
2019-03-19T07:34:00.300Z,0.30
2019-03-19T07:36:29.571Z,0.33
2019-03-19T07:38:58.843Z,0.40
2019-03-19T07:41:28.147Z,0.30
2019-03-19T07:43:57.415Z,0.20
2019-03-19T07:46:26.700Z,0.33
2019-03-19T07:48:55.972Z,0.33
2019-03-19T07:51:25.298Z,0.40
2019-03-19T07:53:54.576Z,0.30
2019-03-19T07:56:23.856Z,0.40
2019-03-19T07:58:53.127Z,0.20
2019-03-19T08:04:10.652Z,0.30
2019-03-19T08:06:58.986Z,0.20
2019-03-19T08:09:28.360Z,0.30
2019-03-19T08:12:16.654Z,0.20
2019-03-19T08:14:45.952Z,0.20
2019-03-19T08:17:15.231Z,0.30
2019-03-19T08:19:44.525Z,0.40
2019-03-19T08:22:13.817Z,0.40
2019-03-19T08:24:43.081Z,0.40
2019-03-19T08:27:12.377Z,0.30
2019-03-19T08:29:43.928Z,0.20
2019-03-19T08:32:13.240Z,0.60
2019-03-19T08:34:42.540Z,0.30
2019-03-19T08:37:11.809Z,0.20
2019-03-19T08:39:41.088Z,0.37
2019-03-19T08:42:10.362Z,0.30
2019-03-19T08:44:39.645Z,0.40
2019-03-19T08:47:08.915Z,0.40
2019-03-19T08:49:38.503Z,0.10
2019-03-19T08:52:07.776Z,0.40
2019-03-19T08:54:37.041Z,0.87
2019-03-19T08:57:06.312Z,0.30
2019-03-19T08:59:35.576Z,0.37
2019-03-19T09:02:04.952Z,0.23
2019-03-19T09:04:34.223Z,0.30
2019-03-19T09:07:03.536Z,0.47
2019-03-19T09:09:32.807Z,0.40
2019-03-19T09:12:02.095Z,0.40
2019-03-19T09:14:31.373Z,0.30
2019-03-19T09:17:00.646Z,0.30
2019-03-19T09:19:29.926Z,0.10
2019-03-19T09:21:59.197Z,0.50
2019-03-19T09:24:28.484Z,0.30
2019-03-19T09:26:57.752Z,0.20
2019-03-19T09:29:27.051Z,0.20
2019-03-19T09:31:56.333Z,0.20
2019-03-19T09:34:25.622Z,0.50
2019-03-19T09:36:57.570Z,0.30
2019-03-19T09:39:25.879Z,0.37
2019-03-19T09:41:55.161Z,0.60
2019-03-19T09:44:24.439Z,0.40
2019-03-19T09:46:53.702Z,0.50
2019-03-19T09:49:22.981Z,0.20
2019-03-19T09:54:26.750Z,0.77
2019-03-19T09:56:56.020Z,0.33
2019-03-19T09:59:27.342Z,0.30
2019-03-19T10:01:56.289Z,0.47
2019-03-19T10:04:25.565Z,0.30
2019-03-19T10:06:54.845Z,0.43
2019-03-19T10:09:25.863Z,0.57
2019-03-19T10:11:55.142Z,0.50
2019-03-19T10:14:24.459Z,0.33
2019-03-19T10:16:53.725Z,0.63
2019-03-19T10:19:22.995Z,0.30
2019-03-19T10:21:52.272Z,0.30
2019-03-19T10:24:21.539Z,0.43
2019-03-19T10:26:50.820Z,0.30
2019-03-19T10:29:20.095Z,0.30
2019-03-19T10:31:49.373Z,0.40
2019-03-19T10:34:18.641Z,0.40
2019-03-19T10:36:47.919Z,0.50
2019-03-19T10:39:17.192Z,0.20
2019-03-19T10:41:46.469Z,0.40
2019-03-19T10:44:15.753Z,0.40
2019-03-19T10:46:45.096Z,0.30
2019-03-19T10:49:14.380Z,0.37
2019-03-19T10:51:43.673Z,0.30
2019-03-19T10:54:12.973Z,0.30
2019-03-19T10:56:42.271Z,0.30
2019-03-19T10:59:11.550Z,0.30
2019-03-19T11:01:40.811Z,0.60
2019-03-19T11:04:10.102Z,0.53
2019-03-19T11:06:39.357Z,0.70
2019-03-19T11:09:09.188Z,0.33
2019-03-19T11:11:38.460Z,0.30
2019-03-19T11:14:07.726Z,0.43
2019-03-19T11:16:37.016Z,0.40
2019-03-19T11:19:06.278Z,0.50
2019-03-19T11:21:35.553Z,0.33
2019-03-19T11:24:04.833Z,0.50
2019-03-19T11:26:34.107Z,0.50
2019-03-19T11:31:38.757Z,0.40
2019-03-19T11:34:08.025Z,0.30
2019-03-19T11:36:37.296Z,0.40
2019-03-19T11:39:09.231Z,0.53
2019-03-19T11:41:38.507Z,0.40
2019-03-19T11:44:07.816Z,0.40
2019-03-19T11:46:37.106Z,0.30
2019-03-19T11:49:06.385Z,0.20
2019-03-19T11:51:35.694Z,0.60
2019-03-19T11:54:05.092Z,0.30
2019-03-19T11:56:34.358Z,0.30
2019-03-19T11:59:03.722Z,0.40
2019-03-19T12:01:32.986Z,0.20
2019-03-19T12:04:02.273Z,0.50
2019-03-19T12:06:31.549Z,0.37
2019-03-19T12:09:00.816Z,0.43
2019-03-19T12:11:30.104Z,0.50
2019-03-19T12:13:59.382Z,0.50
2019-03-19T12:16:28.692Z,0.37
2019-03-19T12:18:57.963Z,0.40
2019-03-19T12:21:27.261Z,0.30
2019-03-19T12:23:56.540Z,0.30
2019-03-19T12:26:25.800Z,0.43
2019-03-19T12:28:55.086Z,0.33
2019-03-19T12:31:24.363Z,0.40
2019-03-19T12:33:53.648Z,0.30
2019-03-19T12:36:22.926Z,0.40
2019-03-19T12:39:11.258Z,0.40
2019-03-19T12:41:43.413Z,0.50
2019-03-19T12:44:12.683Z,0.40
2019-03-19T12:46:41.961Z,0.20
2019-03-19T12:49:11.261Z,0.40
2019-03-19T12:51:40.554Z,0.30
2019-03-19T12:56:44.432Z,0.37
2019-03-19T12:59:20.098Z,0.60
2019-03-19T13:01:44.720Z,0.30
2019-03-19T13:04:14.010Z,0.30
2019-03-19T13:06:43.290Z,0.30
2019-03-19T13:09:12.593Z,0.20
2019-03-19T13:11:41.886Z,0.27
2019-03-19T13:14:11.155Z,0.23
2019-03-19T13:16:42.800Z,0.17
2019-03-19T13:19:11.459Z,0.40
2019-03-19T13:21:40.737Z,0.30
2019-03-19T13:24:10.013Z,0.37
2019-03-19T13:26:39.297Z,0.30
2019-03-19T13:29:08.573Z,0.30
2019-03-19T13:31:37.856Z,0.30
2019-03-19T13:34:07.140Z,0.20
2019-03-19T13:36:36.405Z,0.30
2019-03-19T13:39:08.563Z,0.60
2019-03-19T13:41:37.850Z,0.23
2019-03-19T13:44:07.115Z,0.30
2019-03-19T13:46:36.408Z,0.30
2019-03-19T13:49:05.685Z,0.33
2019-03-19T13:51:34.960Z,0.30
2019-03-19T13:54:04.362Z,0.20
2019-03-19T13:56:33.635Z,0.20
2019-03-19T13:59:02.928Z,0.43
2019-03-19T14:01:32.212Z,0.40
2019-03-19T14:04:01.497Z,0.30
2019-03-19T14:06:30.780Z,0.40
2019-03-19T14:09:00.069Z,0.30
2019-03-19T14:11:29.365Z,0.30
2019-03-19T14:13:58.658Z,0.30
2019-03-19T14:16:27.948Z,0.40
2019-03-19T14:18:57.217Z,0.40
2019-03-19T14:21:26.499Z,0.37
2019-03-19T14:23:55.793Z,0.30
2019-03-19T14:26:25.116Z,0.30
2019-03-19T14:28:54.405Z,0.20
2019-03-19T14:31:23.679Z,0.30
2019-03-19T14:33:53.029Z,0.30
2019-03-19T14:36:22.437Z,0.40
2019-03-19T14:38:51.721Z,0.50
2019-03-19T14:41:21.048Z,0.30
2019-03-19T14:43:50.342Z,0.20
2019-03-19T14:46:19.618Z,0.60
2019-03-19T14:48:48.920Z,0.70
2019-03-19T14:51:37.354Z,0.20
2019-03-19T14:54:06.668Z,0.20
2019-03-19T14:56:35.960Z,0.33
2019-03-19T14:59:05.269Z,0.53
2019-03-19T15:01:34.547Z,0.27
2019-03-19T15:04:03.917Z,0.40
2019-03-19T15:06:33.202Z,0.20
2019-03-19T15:09:02.520Z,0.30
2019-03-19T15:11:31.806Z,0.43
2019-03-19T15:14:01.079Z,0.40
2019-03-19T15:16:30.374Z,0.33
2019-03-19T15:21:47.960Z,0.20
2019-03-19T15:24:17.315Z,0.30
2019-03-19T15:26:46.681Z,0.20
2019-03-19T15:29:15.971Z,0.30
2019-03-19T15:31:45.247Z,0.30
2019-03-19T15:34:14.616Z,0.30
2019-03-19T15:36:43.946Z,0.30
2019-03-19T15:39:13.266Z,0.30
2019-03-19T15:41:42.557Z,0.37
2019-03-19T15:44:11.829Z,0.30
2019-03-19T15:46:41.117Z,0.23
2019-03-19T15:49:10.405Z,0.30
2019-03-19T15:51:39.674Z,0.27
2019-03-19T15:54:08.948Z,0.23
2019-03-19T15:56:38.273Z,0.30
2019-03-19T16:01:42.077Z,0.40
2019-03-19T16:04:11.376Z,0.50
2019-03-19T16:06:40.661Z,0.30
2019-03-19T16:09:10.444Z,0.20
2019-03-19T16:11:39.722Z,0.30
2019-03-19T16:14:09.027Z,0.33
2019-03-19T16:16:38.340Z,0.20
2019-03-19T16:19:07.714Z,0.40
2019-03-19T16:21:37.049Z,0.37
2019-03-19T16:24:06.342Z,0.30
2019-03-19T16:26:35.661Z,0.37
2019-03-19T16:29:04.978Z,0.40
2019-03-19T16:31:34.294Z,0.27
2019-03-19T16:34:03.661Z,0.30
2019-03-19T16:36:32.939Z,0.57
2019-03-19T16:39:02.274Z,0.30
2019-03-19T16:44:19.932Z,0.30
2019-03-19T16:46:49.276Z,0.83
2019-03-19T16:49:18.564Z,0.30
2019-03-19T16:51:47.876Z,0.43
2019-03-19T16:54:17.154Z,0.30
2019-03-19T16:56:46.468Z,0.30
2019-03-19T16:59:15.785Z,0.40
2019-03-19T17:01:45.064Z,0.33
2019-03-19T17:04:14.384Z,0.37
2019-03-19T17:06:43.686Z,0.40
2019-03-19T17:09:12.978Z,0.30
2019-03-19T17:11:42.259Z,0.50
2019-03-19T17:14:11.620Z,0.47
2019-03-19T17:16:41.002Z,0.53
2019-03-19T17:19:10.322Z,0.50
2019-03-19T17:21:39.601Z,0.40
2019-03-19T17:24:08.860Z,0.50
2019-03-19T17:26:38.145Z,0.50
2019-03-19T17:29:07.415Z,0.40
2019-03-19T17:31:36.704Z,0.30
2019-03-19T17:34:05.989Z,0.50
2019-03-19T17:36:35.288Z,0.80
2019-03-19T17:39:25.694Z,0.70
2019-03-19T17:41:55.003Z,0.90
2019-03-19T17:44:24.275Z,0.60
2019-03-19T17:49:42.008Z,0.30
2019-03-19T17:52:11.377Z,0.40
2019-03-19T17:54:40.667Z,0.40
2019-03-19T17:57:09.978Z,0.40
2019-03-19T17:59:39.262Z,0.50
2019-03-19T18:02:08.563Z,0.50
2019-03-19T18:04:56.796Z,0.40
2019-03-19T18:07:26.130Z,0.40
2019-03-19T18:09:55.415Z,0.30
2019-03-19T18:12:24.712Z,0.40
2019-03-19T18:14:53.995Z,0.30
2019-03-19T18:17:23.258Z,0.40
2019-03-19T18:19:52.533Z,0.23
2019-03-19T18:22:21.953Z,0.53
2019-03-19T18:24:51.225Z,0.57
2019-03-19T18:27:20.536Z,0.40
2019-03-19T18:30:08.833Z,0.43
2019-03-19T18:32:38.117Z,0.40
2019-03-19T18:35:07.540Z,0.60
2019-03-19T18:37:36.821Z,0.57
2019-03-19T18:40:06.392Z,0.40
2019-03-19T18:42:35.676Z,2.20
2019-03-19T18:45:05.598Z,1.73
2019-03-19T18:47:34.862Z,0.60
2019-03-19T18:53:12.859Z,0.37
2019-03-19T18:55:42.126Z,0.50
2019-03-19T18:58:11.389Z,0.60
2019-03-19T19:00:40.693Z,0.50
2019-03-19T19:03:10.015Z,1.07
2019-03-19T19:05:39.379Z,0.53
2019-03-19T19:08:08.701Z,0.40
2019-03-19T19:10:37.983Z,0.33
2019-03-19T19:13:07.278Z,0.53
2019-03-19T19:15:36.544Z,0.53
2019-03-19T19:18:24.808Z,0.70
2019-03-19T19:20:54.396Z,0.70
2019-03-19T19:23:23.703Z,0.60
2019-03-19T19:25:53.045Z,0.50
2019-03-19T19:28:22.337Z,0.63
2019-03-19T19:33:49.358Z,0.63
2019-03-19T19:36:18.681Z,0.57
2019-03-19T19:38:48.016Z,0.40
2019-03-19T19:41:17.320Z,0.40
2019-03-19T19:46:35.017Z,0.33
2019-03-19T19:49:04.434Z,0.57
2019-03-19T19:51:33.743Z,0.50
2019-03-19T19:54:03.097Z,0.80
2019-03-19T19:56:32.421Z,0.60
2019-03-19T19:59:01.711Z,0.57
2019-03-19T20:01:31.012Z,0.40
2019-03-19T20:04:00.390Z,0.30
2019-03-19T20:12:01.098Z,0.57
2019-03-19T20:14:30.378Z,0.70
2019-03-19T20:16:59.739Z,0.50
2019-03-19T20:19:29.084Z,0.90
2019-03-19T20:21:58.373Z,0.60
2019-03-19T20:24:27.677Z,0.80
2019-03-19T20:26:56.966Z,0.73
2019-03-19T20:29:26.317Z,0.50
2019-03-19T20:31:55.665Z,0.50
2019-03-19T20:34:25.126Z,0.67
2019-03-19T20:36:54.455Z,0.70
2019-03-19T20:39:23.730Z,1.17
2019-03-19T20:41:53.054Z,0.93
2019-03-19T20:44:22.399Z,1.10
2019-03-19T20:46:51.692Z,0.90
2019-03-19T20:49:20.966Z,1.03
2019-03-19T20:51:50.275Z,0.93
2019-03-19T20:54:19.580Z,1.60
2019-03-19T20:56:48.873Z,1.67
2019-03-19T20:59:18.160Z,1.73
2019-03-19T21:01:47.459Z,1.93
2019-03-19T21:04:16.760Z,2.20
2019-03-19T21:06:46.047Z,1.77
2019-03-19T21:09:15.353Z,1.50
2019-03-19T21:11:44.696Z,1.83
2019-03-19T21:14:13.988Z,1.70
2019-03-19T21:16:43.263Z,1.73
2019-03-19T21:19:12.553Z,0.93
2019-03-19T21:21:41.851Z,0.97
2019-03-19T21:24:11.166Z,0.83
2019-03-19T21:26:40.442Z,1.00
2019-03-19T21:31:44.406Z,0.93
2019-03-19T21:34:13.695Z,0.73
2019-03-19T21:36:42.974Z,1.10
2019-03-19T21:39:12.271Z,0.60
2019-03-19T21:41:41.545Z,0.90
2019-03-19T21:44:29.730Z,0.90
2019-03-19T21:46:58.998Z,0.90
2019-03-19T21:49:28.337Z,0.90
2019-03-19T21:51:57.624Z,1.00
2019-03-19T21:54:26.921Z,1.07
2019-03-19T21:56:56.200Z,1.20
2019-03-19T21:59:25.487Z,0.83
2019-03-19T22:01:54.780Z,0.70
2019-03-19T22:04:24.088Z,1.07
2019-03-19T22:06:53.374Z,0.87
2019-03-19T22:09:22.662Z,0.80
2019-03-19T22:11:51.933Z,0.67
2019-03-19T22:14:21.247Z,0.97
2019-03-19T22:16:50.523Z,0.97
2019-03-19T22:19:19.804Z,0.83
2019-03-19T22:21:49.092Z,0.63
2019-03-19T22:24:18.373Z,0.60
2019-03-19T22:26:47.659Z,0.80
2019-03-19T22:29:16.932Z,1.17
2019-03-19T22:31:46.203Z,0.77
2019-03-19T22:34:15.466Z,0.90
2019-03-19T22:36:44.761Z,1.00
2019-03-19T22:39:14.039Z,1.50
2019-03-19T22:41:43.320Z,0.73
2019-03-19T22:44:12.598Z,0.97
2019-03-19T22:46:41.887Z,1.03
2019-03-19T22:49:11.163Z,0.50
2019-03-19T22:51:40.436Z,0.60
2019-03-19T22:54:09.725Z,1.10
2019-03-19T22:56:39.023Z,1.17
2019-03-19T22:59:08.337Z,0.77
2019-03-19T23:01:37.608Z,0.60
2019-03-19T23:04:06.887Z,0.60
2019-03-19T23:06:36.173Z,0.72
2019-03-19T23:09:45.926Z,1.10
2019-03-19T23:12:15.208Z,0.63
2019-03-19T23:14:44.488Z,0.73
2019-03-19T23:17:13.765Z,0.67
2019-03-19T23:19:43.057Z,0.90
2019-03-19T23:22:12.346Z,0.90
2019-03-19T23:24:41.637Z,0.97
2019-03-19T23:27:10.917Z,0.70
2019-03-19T23:29:40.187Z,0.80
2019-03-19T23:32:09.448Z,0.70
2019-03-19T23:34:38.968Z,0.40
2019-03-19T23:37:08.215Z,0.70
2019-03-19T23:39:37.493Z,0.90
2019-03-19T23:42:06.850Z,1.00
2019-03-19T23:44:36.130Z,0.90
2019-03-19T23:47:05.407Z,0.60
2019-03-19T23:49:34.694Z,0.80
2019-03-19T23:52:04.047Z,0.90
2019-03-19T23:54:33.311Z,0.90
2019-03-19T23:57:02.590Z,0.60
2019-03-19T23:59:31.877Z,0.70
